Main page
METAR-TAF:

METAR-TAF

Airports :

Olsztyn-Mazury Airport

Olsztyn, Poland

latitude: 53-28-55N, longitude: 20-56-16E, elevation: 141 m

Current weather observation

The report was made 2 hours and 20 minutes ago, at 18:00 UTC
Wind 2 kt from the West/Southwest
Temperature 3°C
Humidity 100%
Pressure 1024 hPa
Visibility: 0400 m
fog

METAR: EPSY 201800Z 24002KT 0400 R01/1000U FG NSC 03/03 Q1024

Time: 22:20 (20:20 UTC)

Forecast

The report was made 2 hours and 50 minutes ago, at 17:30 UTC
Forecast valid from 20 at 18 UTC to 21 at 03 UTC
Wind 3 kt from variable directions
Visibility: 0300 m
Broken clouds at a height of 200 ft
fog

TAF: EPSY 201730Z 2018/2103 VRB03KT 0300 FG BKN002

Weather observations and forecasts of more than 4000 airports (METAR and TAF reports).

The available stations are represented by yellow and red dots on the map.

Hover mouse over dot to see the name of the station.

Then click to see weather observations and forecasts.

To change the map : click on the green buttons with a black cross to zoom in, on the green button with a dash to zoom out, or on the green arrows for adjacent maps.


METAR-TAF: